createdAt,value
2019-01-09T00:00:53.260Z,931.69
2019-01-09T00:01:53.151Z,931.48
2019-01-09T00:02:53.067Z,931.72
2019-01-09T00:03:52.944Z,931.69
2019-01-09T00:04:52.839Z,931.61
2019-01-09T00:05:52.738Z,931.55
2019-01-09T00:06:52.634Z,931.60
2019-01-09T00:07:52.547Z,931.47
2019-01-09T00:08:52.428Z,931.57
2019-01-09T00:09:52.321Z,931.55
2019-01-09T00:10:52.226Z,931.50
2019-01-09T00:11:52.179Z,931.57
2019-01-09T00:12:52.029Z,931.53
2019-01-09T00:13:51.914Z,931.51
2019-01-09T00:14:51.805Z,931.57
2019-01-09T00:15:51.703Z,931.58
2019-01-09T00:16:51.598Z,931.60
2019-01-09T00:17:51.511Z,931.49
2019-01-09T00:18:51.391Z,931.47
2019-01-09T00:19:51.286Z,931.49
2019-01-09T00:20:51.185Z,931.49
2019-01-09T00:21:51.085Z,931.61
2019-01-09T00:22:50.997Z,931.56
2019-01-09T00:23:50.876Z,931.58
2019-01-09T00:24:50.777Z,931.51
2019-01-09T00:25:50.671Z,931.60
2019-01-09T00:26:50.569Z,931.56
2019-01-09T00:27:50.479Z,931.61
2019-01-09T00:28:50.362Z,931.57
2019-01-09T00:29:50.255Z,931.60
2019-01-09T00:30:50.150Z,931.60
2019-01-09T00:31:50.151Z,931.63
2019-01-09T00:32:49.959Z,931.66
2019-01-09T00:33:49.843Z,931.57
2019-01-09T00:34:49.742Z,931.63
2019-01-09T00:35:49.633Z,931.62
2019-01-09T00:36:49.532Z,931.64
2019-01-09T00:37:49.447Z,931.61
2019-01-09T00:38:49.323Z,931.59
2019-01-09T00:39:49.221Z,931.58
2019-01-09T00:40:49.120Z,931.69
2019-01-09T00:41:49.018Z,931.68
2019-01-09T00:42:48.928Z,931.66
2019-01-09T00:43:48.810Z,931.69
2019-01-09T00:44:48.703Z,931.68
2019-01-09T00:45:48.700Z,931.74
2019-01-09T00:46:48.495Z,931.70
2019-01-09T00:47:48.412Z,931.72
2019-01-09T00:48:48.288Z,931.72
2019-01-09T00:49:48.186Z,931.64
2019-01-09T00:50:48.085Z,931.70
2019-01-09T00:51:47.981Z,931.62
2019-01-09T00:52:47.997Z,931.67
2019-01-09T00:53:47.772Z,931.66
2019-01-09T00:54:47.674Z,931.57
2019-01-09T00:55:47.567Z,931.68
2019-01-09T00:56:47.465Z,931.75
2019-01-09T00:57:48.330Z,931.77
2019-01-09T00:58:47.254Z,931.65
2019-01-09T00:59:47.152Z,931.65
2019-01-09T01:00:47.047Z,931.56
2019-01-09T01:01:46.946Z,931.62
2019-01-09T01:02:46.863Z,931.65
2019-01-09T01:03:48.378Z,931.65
2019-01-09T01:04:46.633Z,931.72
2019-01-09T01:05:46.584Z,931.69
2019-01-09T01:06:46.610Z,931.74
2019-01-09T01:07:46.328Z,931.69
2019-01-09T01:08:46.238Z,931.70
2019-01-09T01:09:46.120Z,931.64
2019-01-09T01:10:46.019Z,931.68
2019-01-09T01:11:45.909Z,931.54
2019-01-09T01:12:45.811Z,931.63
2019-01-09T01:13:45.831Z,931.59
2019-01-09T01:14:45.602Z,931.67
2019-01-09T01:15:45.495Z,931.66
2019-01-09T01:16:45.403Z,931.68
2019-01-09T01:17:45.294Z,931.74
2019-01-09T01:18:45.202Z,931.68
2019-01-09T01:19:45.087Z,931.73
2019-01-09T01:20:45.081Z,931.75
2019-01-09T01:21:44.877Z,931.82
2019-01-09T01:22:44.773Z,931.91
2019-01-09T01:23:44.689Z,931.98
2019-01-09T01:24:44.570Z,932.04
2019-01-09T01:25:44.464Z,932.05
2019-01-09T01:26:44.364Z,932.25
2019-01-09T01:27:44.364Z,932.01
2019-01-09T01:28:44.168Z,932.01
2019-01-09T01:29:44.052Z,931.91
2019-01-09T01:30:43.949Z,931.97
2019-01-09T01:31:43.844Z,932.00
2019-01-09T01:32:43.741Z,931.89
2019-01-09T01:33:43.651Z,931.91
2019-01-09T01:34:43.649Z,931.83
2019-01-09T01:35:43.428Z,931.84
2019-01-09T01:36:43.321Z,931.95
2019-01-09T01:37:43.220Z,931.98
2019-01-09T01:38:43.144Z,931.82
2019-01-09T01:39:43.012Z,931.99
2019-01-09T01:40:42.909Z,932.05
2019-01-09T01:41:42.914Z,931.96
2019-01-09T01:42:42.704Z,932.06
2019-01-09T01:43:42.616Z,931.95
2019-01-09T01:44:42.495Z,931.98
2019-01-09T01:45:42.393Z,931.96
2019-01-09T01:46:42.289Z,931.93
2019-01-09T01:47:42.185Z,931.79
2019-01-09T01:48:42.202Z,932.08
2019-01-09T01:49:41.978Z,931.94
2019-01-09T01:50:41.876Z,931.84
2019-01-09T01:51:41.770Z,932.07
2019-01-09T01:52:41.667Z,932.07
2019-01-09T01:53:41.580Z,932.03
2019-01-09T01:54:41.457Z,932.06
2019-01-09T01:55:41.457Z,932.02
2019-01-09T01:56:41.251Z,932.02
2019-01-09T01:57:41.146Z,932.05
2019-01-09T01:58:41.063Z,931.95
2019-01-09T01:59:40.940Z,931.97
2019-01-09T02:00:40.835Z,932.02
2019-01-09T02:01:40.859Z,931.92
2019-01-09T02:02:40.628Z,931.98
2019-01-09T02:03:40.540Z,932.06
2019-01-09T02:04:40.422Z,931.96
2019-01-09T02:05:40.322Z,932.05
2019-01-09T02:06:40.214Z,932.02
2019-01-09T02:07:40.112Z,932.06
2019-01-09T02:08:40.021Z,932.06
2019-01-09T02:09:39.906Z,932.14
2019-01-09T02:10:39.803Z,932.11
2019-01-09T02:11:39.697Z,932.16
2019-01-09T02:12:39.595Z,932.16
2019-01-09T02:13:39.510Z,932.02
2019-01-09T02:14:39.393Z,932.16
2019-01-09T02:15:39.284Z,932.14
2019-01-09T02:16:39.176Z,932.15
2019-01-09T02:17:39.072Z,932.21
2019-01-09T02:18:38.986Z,932.15
2019-01-09T02:19:38.865Z,932.10
2019-01-09T02:20:38.766Z,932.15
2019-01-09T02:21:38.662Z,932.16
2019-01-09T02:22:38.559Z,932.16
2019-01-09T02:23:38.472Z,932.18
2019-01-09T02:24:38.352Z,932.23
2019-01-09T02:25:38.244Z,932.17
2019-01-09T02:26:38.144Z,932.23
2019-01-09T02:27:38.038Z,932.27
2019-01-09T02:28:37.952Z,932.21
2019-01-09T02:29:37.828Z,932.22
2019-01-09T02:30:37.728Z,932.29
2019-01-09T02:31:37.629Z,932.28
2019-01-09T02:32:37.520Z,932.12
2019-01-09T02:33:37.433Z,932.22
2019-01-09T02:34:37.311Z,932.24
2019-01-09T02:35:37.208Z,932.23
2019-01-09T02:36:37.105Z,932.22
2019-01-09T02:37:37.004Z,932.21
2019-01-09T02:38:36.917Z,932.30
2019-01-09T02:39:36.795Z,932.20
2019-01-09T02:40:36.693Z,932.19
2019-01-09T02:41:36.588Z,932.22
2019-01-09T02:42:36.484Z,932.13
2019-01-09T02:43:36.393Z,932.13
2019-01-09T02:44:36.278Z,932.15
2019-01-09T02:45:36.173Z,932.28
2019-01-09T02:46:36.070Z,932.23
2019-01-09T02:47:35.967Z,932.23
2019-01-09T02:48:35.892Z,932.04
2019-01-09T02:49:35.763Z,932.26
2019-01-09T02:50:35.661Z,932.19
2019-01-09T02:51:35.553Z,932.10
2019-01-09T02:52:35.446Z,932.14
2019-01-09T02:53:35.343Z,932.18
2019-01-09T02:54:35.255Z,932.24
2019-01-09T02:55:35.143Z,932.16
2019-01-09T02:56:35.033Z,932.12
2019-01-09T02:57:34.927Z,932.21
2019-01-09T02:58:34.826Z,932.17
2019-01-09T02:59:35.153Z,932.13
2019-01-09T03:00:34.617Z,932.14
2019-01-09T03:01:34.514Z,932.17
2019-01-09T03:02:34.415Z,932.16
2019-01-09T03:03:34.305Z,932.10
2019-01-09T03:04:34.220Z,932.04
2019-01-09T03:05:34.100Z,932.21
2019-01-09T03:06:34.004Z,932.19
2019-01-09T03:07:33.889Z,932.17
2019-01-09T03:08:33.795Z,932.16
2019-01-09T03:09:33.701Z,932.06
2019-01-09T03:10:33.579Z,932.04
2019-01-09T03:11:33.480Z,932.14
2019-01-09T03:12:33.376Z,932.14
2019-01-09T03:13:33.270Z,932.14
2019-01-09T03:14:33.185Z,932.10
2019-01-09T03:15:33.063Z,932.09
2019-01-09T03:16:32.956Z,932.08
2019-01-09T03:17:32.855Z,932.10
2019-01-09T03:18:32.752Z,932.14
2019-01-09T03:19:32.660Z,932.07
2019-01-09T03:20:32.545Z,932.10
2019-01-09T03:21:32.439Z,932.10
2019-01-09T03:22:32.337Z,932.07
2019-01-09T03:23:32.228Z,932.10
2019-01-09T03:24:32.148Z,932.01
2019-01-09T03:25:32.024Z,932.03
2019-01-09T03:26:31.921Z,932.12
2019-01-09T03:27:31.814Z,932.12
2019-01-09T03:28:31.721Z,932.11
2019-01-09T03:29:31.690Z,932.10
2019-01-09T03:30:31.506Z,932.13
2019-01-09T03:31:31.403Z,932.08
2019-01-09T03:32:31.304Z,932.09
2019-01-09T03:33:31.302Z,932.06
2019-01-09T03:34:31.847Z,932.05
2019-01-09T03:35:30.984Z,932.14
2019-01-09T03:36:32.912Z,932.11
2019-01-09T03:37:30.782Z,932.06
2019-01-09T03:38:30.673Z,932.12
2019-01-09T03:39:30.587Z,932.14
2019-01-09T03:40:30.470Z,932.20
2019-01-09T03:41:30.367Z,932.09
2019-01-09T03:42:30.265Z,932.15
2019-01-09T03:43:30.173Z,932.07
2019-01-09T03:44:30.077Z,932.03
2019-01-09T03:45:29.951Z,932.11
2019-01-09T03:46:29.846Z,932.06
2019-01-09T03:47:29.840Z,932.12
2019-01-09T03:48:29.641Z,932.09
2019-01-09T03:49:29.553Z,932.12
2019-01-09T03:50:29.430Z,932.13
2019-01-09T03:51:29.327Z,932.12
2019-01-09T03:52:29.246Z,932.19
2019-01-09T03:53:29.121Z,932.20
2019-01-09T03:54:29.134Z,932.02
2019-01-09T03:55:28.909Z,932.15
2019-01-09T03:56:28.807Z,932.02
2019-01-09T03:57:28.707Z,932.18
2019-01-09T03:58:28.600Z,932.04
2019-01-09T03:59:28.513Z,932.17
2019-01-09T04:00:28.393Z,932.17
2019-01-09T04:01:28.407Z,932.14
2019-01-09T04:02:28.194Z,932.18
2019-01-09T04:03:28.085Z,932.22
2019-01-09T04:04:28.005Z,932.23
2019-01-09T04:05:27.878Z,932.17
2019-01-09T04:06:27.773Z,932.10
2019-01-09T04:07:27.671Z,932.18
2019-01-09T04:08:27.670Z,932.21
2019-01-09T04:09:27.479Z,932.27
2019-01-09T04:10:27.361Z,932.24
2019-01-09T04:11:27.265Z,932.29
2019-01-09T04:12:27.148Z,932.16
2019-01-09T04:13:27.046Z,932.23
2019-01-09T04:14:26.965Z,932.21
2019-01-09T04:15:26.941Z,932.29
2019-01-09T04:16:26.736Z,932.25
2019-01-09T04:17:26.634Z,932.23
2019-01-09T04:18:26.531Z,932.26
2019-01-09T04:19:26.442Z,932.30
2019-01-09T04:20:26.332Z,932.30
2019-01-09T04:21:26.222Z,932.23
2019-01-09T04:22:26.219Z,932.34
2019-01-09T04:23:26.010Z,932.28
2019-01-09T04:24:25.921Z,932.32
2019-01-09T04:25:25.801Z,932.38
2019-01-09T04:26:25.699Z,932.28
2019-01-09T04:27:25.604Z,932.29
2019-01-09T04:28:25.493Z,932.39
2019-01-09T04:29:25.507Z,932.37
2019-01-09T04:30:25.283Z,932.39
2019-01-09T04:31:25.180Z,932.27
2019-01-09T04:32:25.076Z,932.23
2019-01-09T04:33:24.973Z,932.28
2019-01-09T04:34:24.888Z,932.31
2019-01-09T04:35:24.766Z,932.26
2019-01-09T04:36:24.760Z,932.37
2019-01-09T04:37:24.563Z,932.30
2019-01-09T04:38:24.455Z,932.33
2019-01-09T04:39:24.355Z,932.34
2019-01-09T04:40:24.262Z,932.25
2019-01-09T04:41:24.148Z,932.19
2019-01-09T04:42:24.039Z,932.28
2019-01-09T04:43:24.038Z,932.18
2019-01-09T04:44:23.837Z,932.29
2019-01-09T04:45:23.747Z,932.27
2019-01-09T04:46:23.628Z,932.26
2019-01-09T04:47:23.522Z,932.28
2019-01-09T04:48:23.420Z,932.22
2019-01-09T04:49:23.324Z,932.32
2019-01-09T04:50:23.330Z,932.17
2019-01-09T04:51:23.110Z,932.33
2019-01-09T04:52:23.001Z,932.27
2019-01-09T04:53:22.931Z,932.23
2019-01-09T04:54:22.802Z,932.25
2019-01-09T04:55:22.709Z,932.31
2019-01-09T04:56:22.591Z,932.30
2019-01-09T04:57:22.598Z,932.26
2019-01-09T04:58:22.383Z,932.14
2019-01-09T04:59:22.277Z,932.19
2019-01-09T05:00:22.197Z,932.14
2019-01-09T05:01:22.072Z,932.18
2019-01-09T05:02:21.968Z,932.21
2019-01-09T05:03:21.994Z,932.20
2019-01-09T05:04:21.759Z,932.27
2019-01-09T05:05:21.676Z,932.26
2019-01-09T05:06:21.610Z,932.30
2019-01-09T05:07:21.446Z,932.27
2019-01-09T05:08:21.345Z,932.04
2019-01-09T05:09:21.239Z,932.27
2019-01-09T05:10:25.611Z,932.31
2019-01-09T05:11:21.133Z,932.29
2019-01-09T05:12:20.948Z,932.31
2019-01-09T05:13:20.907Z,932.22
2019-01-09T05:14:20.725Z,932.28
2019-01-09T05:15:20.635Z,932.35
2019-01-09T05:16:20.518Z,932.28
2019-01-09T05:17:20.421Z,932.35
2019-01-09T05:18:20.305Z,932.37
2019-01-09T05:19:20.205Z,932.30
2019-01-09T05:20:20.115Z,932.30
2019-01-09T05:21:19.999Z,932.42
2019-01-09T05:22:19.892Z,932.32
2019-01-09T05:23:19.791Z,932.41
2019-01-09T05:24:19.684Z,932.40
2019-01-09T05:25:19.599Z,932.35
2019-01-09T05:26:19.481Z,932.43
2019-01-09T05:27:19.375Z,932.39
2019-01-09T05:28:19.268Z,932.42
2019-01-09T05:29:19.167Z,932.39
2019-01-09T05:30:19.080Z,932.41
2019-01-09T05:31:18.964Z,932.31
2019-01-09T05:32:18.856Z,932.39
2019-01-09T05:33:18.758Z,932.39
2019-01-09T05:34:18.647Z,932.37
2019-01-09T05:35:18.565Z,932.35
2019-01-09T05:36:18.440Z,932.37
2019-01-09T05:37:18.339Z,932.44
2019-01-09T05:38:18.240Z,932.42
2019-01-09T05:39:18.134Z,932.48
2019-01-09T05:40:18.045Z,932.42
2019-01-09T05:41:17.921Z,932.36
2019-01-09T05:42:17.818Z,932.37
2019-01-09T05:43:17.728Z,932.31
2019-01-09T05:44:17.612Z,932.42
2019-01-09T05:45:17.526Z,932.41
2019-01-09T05:46:17.407Z,932.41
2019-01-09T05:47:17.298Z,932.45
2019-01-09T05:48:17.198Z,932.45
2019-01-09T05:49:17.094Z,932.40
2019-01-09T05:50:17.005Z,932.33
2019-01-09T05:51:16.884Z,932.41
2019-01-09T05:52:16.798Z,932.41
2019-01-09T05:53:16.679Z,932.40
2019-01-09T05:54:16.577Z,932.34
2019-01-09T05:55:16.489Z,932.44
2019-01-09T05:56:16.368Z,932.48
2019-01-09T05:57:16.263Z,932.49
2019-01-09T05:58:16.163Z,932.51
2019-01-09T05:59:16.057Z,932.40
2019-01-09T06:00:15.971Z,932.38
2019-01-09T06:01:15.865Z,932.46
2019-01-09T06:02:15.744Z,932.44
2019-01-09T06:03:15.645Z,932.41
2019-01-09T06:04:15.536Z,932.41
2019-01-09T06:05:15.453Z,932.39
2019-01-09T06:06:15.332Z,932.36
2019-01-09T06:07:18.654Z,932.31
2019-01-09T06:08:15.125Z,932.41
2019-01-09T06:09:15.019Z,932.44
2019-01-09T06:10:14.933Z,932.43
2019-01-09T06:11:14.816Z,932.41
2019-01-09T06:12:14.710Z,932.42
2019-01-09T06:13:14.605Z,932.50
2019-01-09T06:14:14.503Z,932.46
2019-01-09T06:15:14.401Z,932.40
2019-01-09T06:16:14.315Z,932.49
2019-01-09T06:17:14.194Z,932.44
2019-01-09T06:18:14.087Z,932.50
2019-01-09T06:19:13.986Z,932.46
2019-01-09T06:20:13.996Z,932.51
2019-01-09T06:21:13.778Z,932.40
2019-01-09T06:22:13.673Z,932.47
2019-01-09T06:23:13.570Z,932.47
2019-01-09T06:24:13.466Z,932.48
2019-01-09T06:25:13.364Z,932.38
2019-01-09T06:26:13.275Z,932.46
2019-01-09T06:27:13.252Z,932.44
2019-01-09T06:28:13.050Z,932.43
2019-01-09T06:29:12.950Z,932.52
2019-01-09T06:30:12.846Z,932.46
2019-01-09T06:31:12.759Z,932.49
2019-01-09T06:32:12.637Z,932.52
2019-01-09T06:33:12.530Z,932.50
2019-01-09T06:34:12.529Z,932.53
2019-01-09T06:35:12.325Z,932.51
2019-01-09T06:36:12.235Z,932.54
2019-01-09T06:37:12.119Z,932.50
2019-01-09T06:38:12.016Z,932.56
2019-01-09T06:39:11.914Z,932.58
2019-01-09T06:40:11.806Z,932.55
2019-01-09T06:41:11.823Z,932.60
2019-01-09T06:42:11.599Z,932.55
2019-01-09T06:43:11.499Z,932.64
2019-01-09T06:44:11.390Z,932.55
2019-01-09T06:45:11.289Z,932.53
2019-01-09T06:46:11.203Z,932.69
2019-01-09T06:47:11.085Z,932.60
2019-01-09T06:48:11.095Z,932.64
2019-01-09T06:49:10.875Z,932.69
2019-01-09T06:50:10.773Z,932.72
2019-01-09T06:51:10.681Z,932.71
2019-01-09T06:52:10.562Z,932.74
2019-01-09T06:53:10.469Z,932.70
2019-01-09T06:54:10.356Z,932.85
2019-01-09T06:55:10.359Z,932.83
2019-01-09T06:56:10.162Z,932.80
2019-01-09T06:57:10.049Z,932.87
2019-01-09T06:58:09.939Z,932.81
2019-01-09T06:59:09.840Z,932.62
2019-01-09T07:00:09.733Z,932.87
2019-01-09T07:01:09.643Z,932.83
2019-01-09T07:02:09.623Z,932.77
2019-01-09T07:03:09.423Z,932.76
2019-01-09T07:04:09.320Z,932.88
2019-01-09T07:05:09.216Z,932.85
2019-01-09T07:06:09.130Z,932.86
2019-01-09T07:07:09.014Z,932.84
2019-01-09T07:08:08.905Z,932.86
2019-01-09T07:09:08.897Z,932.93
2019-01-09T07:10:08.702Z,932.86
2019-01-09T07:11:08.612Z,932.90
2019-01-09T07:12:08.487Z,932.92
2019-01-09T07:13:08.383Z,932.86
2019-01-09T07:14:08.284Z,932.75
2019-01-09T07:15:11.815Z,932.88
2019-01-09T07:16:08.196Z,932.88
2019-01-09T07:17:07.970Z,932.87
2019-01-09T07:18:07.869Z,932.90
2019-01-09T07:19:07.763Z,932.85
2019-01-09T07:20:07.658Z,932.87
2019-01-09T07:21:07.572Z,932.91
2019-01-09T07:22:07.455Z,932.96
2019-01-09T07:23:07.455Z,932.91
2019-01-09T07:24:07.244Z,933.00
2019-01-09T07:25:07.140Z,932.97
2019-01-09T07:26:07.055Z,933.05
2019-01-09T07:27:06.933Z,933.01
2019-01-09T07:28:06.834Z,932.96
2019-01-09T07:29:06.740Z,932.99
2019-01-09T07:30:06.737Z,932.97
2019-01-09T07:31:06.538Z,933.01
2019-01-09T07:32:06.419Z,933.09
2019-01-09T07:33:06.316Z,933.05
2019-01-09T07:34:06.213Z,933.04
2019-01-09T07:35:06.107Z,933.14
2019-01-09T07:36:06.017Z,933.05
2019-01-09T07:37:06.002Z,933.09
2019-01-09T07:38:05.798Z,933.12
2019-01-09T07:39:05.689Z,933.14
2019-01-09T07:40:05.588Z,933.21
2019-01-09T07:41:05.503Z,933.21
2019-01-09T07:42:05.379Z,933.19
2019-01-09T07:43:05.279Z,933.19
2019-01-09T07:44:05.174Z,933.26
2019-01-09T07:45:05.071Z,933.27
2019-01-09T07:46:04.981Z,933.33
2019-01-09T07:47:04.863Z,933.36
2019-01-09T07:48:04.759Z,933.27
2019-01-09T07:49:04.653Z,933.28
2019-01-09T07:50:04.554Z,933.33
2019-01-09T07:51:04.468Z,933.25
2019-01-09T07:52:04.342Z,933.27
2019-01-09T07:53:04.242Z,933.29
2019-01-09T07:54:04.136Z,933.31
2019-01-09T07:55:04.030Z,933.29
2019-01-09T07:56:03.947Z,933.29
2019-01-09T07:57:03.824Z,933.31
2019-01-09T07:58:03.723Z,933.31
2019-01-09T07:59:03.617Z,933.36
2019-01-09T08:00:03.521Z,933.32
2019-01-09T08:01:03.429Z,933.25
2019-01-09T08:02:03.310Z,933.33
2019-01-09T08:03:03.207Z,933.31
2019-01-09T08:04:03.121Z,933.34
2019-01-09T08:05:03.000Z,933.29
2019-01-09T08:06:02.907Z,933.37
2019-01-09T08:07:02.786Z,933.31
2019-01-09T08:08:02.686Z,933.36
2019-01-09T08:09:02.580Z,933.39
2019-01-09T08:10:02.478Z,933.30
2019-01-09T08:11:02.392Z,933.35
2019-01-09T08:12:02.273Z,933.30
2019-01-09T08:13:02.173Z,933.36
2019-01-09T08:14:02.063Z,933.37
2019-01-09T08:15:01.960Z,933.39
2019-01-09T08:16:01.858Z,933.37
2019-01-09T08:17:01.769Z,933.34
2019-01-09T08:18:01.649Z,933.36
2019-01-09T08:19:01.549Z,933.40
2019-01-09T08:20:01.442Z,933.33
2019-01-09T08:21:05.571Z,933.41
2019-01-09T08:22:01.251Z,933.39
2019-01-09T08:23:01.128Z,933.44
2019-01-09T08:24:01.028Z,933.39
2019-01-09T08:25:00.923Z,933.42
2019-01-09T08:26:00.824Z,933.46
2019-01-09T08:27:00.805Z,933.47
2019-01-09T08:28:00.614Z,933.52
2019-01-09T08:29:00.507Z,933.45
2019-01-09T08:30:00.497Z,933.50
2019-01-09T08:31:00.306Z,933.58
2019-01-09T08:32:00.215Z,933.56
2019-01-09T08:33:00.095Z,933.56
2019-01-09T08:33:59.992Z,933.59
2019-01-09T08:34:59.889Z,933.60
2019-01-09T08:35:59.781Z,933.58
2019-01-09T08:36:59.695Z,933.53
2019-01-09T08:38:02.935Z,933.62
2019-01-09T08:38:59.474Z,933.62
2019-01-09T08:39:59.370Z,933.64
2019-01-09T08:40:59.263Z,933.67
2019-01-09T08:41:59.176Z,933.59
2019-01-09T08:42:59.056Z,933.67
2019-01-09T08:43:58.956Z,933.54
2019-01-09T08:44:58.849Z,933.59
2019-01-09T08:45:58.761Z,933.63
2019-01-09T08:46:58.659Z,933.60
2019-01-09T08:47:58.543Z,933.64
2019-01-09T08:48:58.438Z,933.63
2019-01-09T08:49:58.332Z,933.67
2019-01-09T08:50:58.232Z,933.58
2019-01-09T08:51:58.144Z,933.67
2019-01-09T08:52:58.023Z,933.66
2019-01-09T08:53:57.920Z,933.62
2019-01-09T08:54:57.816Z,933.68
2019-01-09T08:55:57.711Z,933.76
2019-01-09T08:56:57.626Z,933.71
2019-01-09T08:57:57.506Z,933.77
2019-01-09T08:58:57.400Z,933.72
2019-01-09T08:59:57.298Z,933.77
2019-01-09T09:00:57.197Z,933.81
2019-01-09T09:01:57.109Z,933.81
2019-01-09T09:02:57.000Z,933.79
2019-01-09T09:03:56.884Z,933.84
2019-01-09T09:04:56.778Z,933.80
2019-01-09T09:05:56.677Z,933.86
2019-01-09T09:06:56.587Z,933.92
2019-01-09T09:07:56.472Z,933.87
2019-01-09T09:08:56.364Z,933.88
2019-01-09T09:09:56.264Z,933.87
2019-01-09T09:10:56.163Z,933.96
2019-01-09T09:11:56.072Z,933.94
2019-01-09T09:12:55.955Z,933.93
2019-01-09T09:13:55.850Z,933.89
2019-01-09T09:14:55.745Z,934.01
2019-01-09T09:15:55.644Z,933.95
2019-01-09T09:16:55.558Z,934.04
2019-01-09T09:17:55.435Z,934.07
2019-01-09T09:18:55.333Z,934.11
2019-01-09T09:19:55.228Z,934.11
2019-01-09T09:20:55.123Z,934.11
2019-01-09T09:21:55.139Z,934.12
2019-01-09T09:22:54.923Z,934.12
2019-01-09T09:23:54.815Z,934.15
2019-01-09T09:24:54.710Z,934.18
2019-01-09T09:25:54.612Z,934.22
2019-01-09T09:26:54.520Z,934.25
2019-01-09T09:27:54.400Z,934.24
2019-01-09T09:28:54.395Z,934.22
2019-01-09T09:29:54.195Z,934.30
2019-01-09T09:30:54.089Z,934.32
2019-01-09T09:31:54.005Z,934.25
2019-01-09T09:32:53.884Z,934.23
2019-01-09T09:33:53.780Z,934.25
2019-01-09T09:34:53.675Z,934.22
2019-01-09T09:35:53.674Z,934.25
2019-01-09T09:36:53.483Z,934.23
2019-01-09T09:37:53.368Z,934.21
2019-01-09T09:38:53.264Z,934.25
2019-01-09T09:39:53.159Z,934.27
2019-01-09T09:40:53.057Z,934.23
2019-01-09T09:41:52.978Z,934.28
2019-01-09T09:42:52.947Z,934.25
2019-01-09T09:43:52.748Z,934.25
2019-01-09T09:44:52.643Z,934.26
2019-01-09T09:45:52.536Z,934.21
2019-01-09T09:46:52.545Z,934.12
2019-01-09T09:47:52.333Z,934.22
2019-01-09T09:48:52.228Z,934.21
2019-01-09T09:49:52.232Z,934.17
2019-01-09T09:50:52.023Z,934.22
2019-01-09T09:51:51.932Z,934.13
2019-01-09T09:52:51.816Z,934.17
2019-01-09T09:53:51.716Z,934.18
2019-01-09T09:54:51.608Z,934.24
2019-01-09T09:55:51.511Z,934.18
2019-01-09T09:56:51.506Z,934.17
2019-01-09T09:57:51.319Z,934.11
2019-01-09T09:58:51.197Z,934.09
2019-01-09T09:59:51.103Z,934.28
2019-01-09T10:00:50.989Z,934.24
2019-01-09T10:01:50.886Z,934.12
2019-01-09T10:02:50.798Z,934.24
2019-01-09T10:03:50.777Z,934.24
2019-01-09T10:04:50.576Z,934.19
2019-01-09T10:05:50.473Z,934.31
2019-01-09T10:06:50.373Z,934.23
2019-01-09T10:07:50.287Z,934.24
2019-01-09T10:08:50.177Z,934.28
2019-01-09T10:09:50.059Z,934.22
2019-01-09T10:10:50.050Z,934.19
2019-01-09T10:11:49.854Z,934.23
2019-01-09T10:12:49.763Z,934.22
2019-01-09T10:13:49.647Z,934.25
2019-01-09T10:14:49.546Z,934.20
2019-01-09T10:15:49.438Z,934.20
2019-01-09T10:16:49.457Z,934.24
2019-01-09T10:17:49.245Z,934.13
2019-01-09T10:18:49.127Z,934.14
2019-01-09T10:19:49.020Z,934.20
2019-01-09T10:20:48.921Z,934.16
2019-01-09T10:21:48.821Z,934.20
2019-01-09T10:22:48.731Z,934.07
2019-01-09T10:23:48.608Z,934.21
2019-01-09T10:24:48.604Z,934.17
2019-01-09T10:25:48.404Z,934.02
2019-01-09T10:26:48.306Z,933.91
2019-01-09T10:27:48.216Z,934.05
2019-01-09T10:28:48.093Z,934.13
2019-01-09T10:29:47.992Z,933.94
2019-01-09T10:30:47.885Z,934.13
2019-01-09T10:31:47.784Z,934.11
2019-01-09T10:32:47.696Z,934.10
2019-01-09T10:33:47.583Z,934.17
2019-01-09T10:34:47.474Z,934.05
2019-01-09T10:35:47.367Z,934.04
2019-01-09T10:36:47.266Z,934.05
2019-01-09T10:37:47.198Z,934.05
2019-01-09T10:38:47.058Z,934.05
2019-01-09T10:39:47.003Z,934.05
2019-01-09T10:40:46.852Z,934.05
2019-01-09T10:41:46.749Z,934.03
2019-01-09T10:42:46.660Z,933.97
2019-01-09T10:43:46.543Z,933.87
2019-01-09T10:44:46.433Z,934.02
2019-01-09T10:45:46.332Z,933.99
2019-01-09T10:46:46.227Z,933.89
2019-01-09T10:47:46.144Z,934.04
2019-01-09T10:48:46.023Z,933.97
2019-01-09T10:49:45.920Z,934.08
2019-01-09T10:50:45.817Z,933.97
2019-01-09T10:51:45.711Z,934.00
2019-01-09T10:52:45.627Z,934.00
2019-01-09T10:53:45.504Z,934.02
2019-01-09T10:54:45.399Z,934.00
2019-01-09T10:55:45.296Z,933.93
2019-01-09T10:56:45.194Z,933.96
2019-01-09T10:57:45.105Z,933.95
2019-01-09T10:58:44.986Z,934.00
2019-01-09T10:59:44.887Z,934.01
2019-01-09T11:00:44.781Z,934.00
2019-01-09T11:01:44.675Z,933.94
2019-01-09T11:02:44.587Z,933.97
2019-01-09T11:03:44.470Z,933.93
2019-01-09T11:04:44.363Z,933.97
2019-01-09T11:05:44.262Z,933.97
2019-01-09T11:06:44.156Z,934.01
2019-01-09T11:07:44.067Z,933.95
2019-01-09T11:08:47.144Z,933.97
2019-01-09T11:09:43.854Z,933.98
2019-01-09T11:10:43.744Z,933.93
2019-01-09T11:11:43.642Z,934.00
2019-01-09T11:12:43.557Z,934.00
2019-01-09T11:13:43.430Z,933.97
2019-01-09T11:14:43.329Z,934.00
2019-01-09T11:15:43.222Z,934.00
2019-01-09T11:16:43.123Z,933.97
2019-01-09T11:17:43.032Z,934.03
2019-01-09T11:18:42.911Z,933.99
2019-01-09T11:19:42.812Z,934.02
2019-01-09T11:20:42.708Z,934.07
2019-01-09T11:21:42.601Z,934.00
2019-01-09T11:22:42.517Z,934.08
2019-01-09T11:23:42.412Z,934.05
2019-01-09T11:24:42.291Z,934.08
2019-01-09T11:25:42.189Z,934.04
2019-01-09T11:26:42.089Z,934.07
2019-01-09T11:27:42.000Z,934.02
2019-01-09T11:28:41.879Z,934.03
2019-01-09T11:29:41.778Z,934.09
2019-01-09T11:30:41.672Z,934.07
2019-01-09T11:31:41.571Z,934.11
2019-01-09T11:32:41.480Z,934.10
2019-01-09T11:33:41.458Z,934.05
2019-01-09T11:34:41.258Z,934.13
2019-01-09T11:35:41.152Z,934.14
2019-01-09T11:36:41.052Z,934.15
2019-01-09T11:37:40.972Z,934.08
2019-01-09T11:38:40.847Z,934.16
2019-01-09T11:39:40.741Z,934.09
2019-01-09T11:40:40.635Z,934.07
2019-01-09T11:41:40.542Z,934.07
2019-01-09T11:42:40.436Z,934.15
2019-01-09T11:43:40.345Z,934.16
2019-01-09T11:44:40.225Z,934.17
2019-01-09T11:45:40.122Z,934.16
2019-01-09T11:46:40.017Z,934.13
2019-01-09T11:47:40.022Z,934.10
2019-01-09T11:48:39.828Z,934.17
2019-01-09T11:49:39.709Z,934.23
2019-01-09T11:50:39.602Z,934.18
2019-01-09T11:51:39.502Z,934.13
2019-01-09T11:52:39.401Z,934.17
2019-01-09T11:53:39.313Z,934.24
2019-01-09T11:54:39.292Z,934.22
2019-01-09T11:55:39.087Z,934.16
2019-01-09T11:56:38.983Z,934.29
2019-01-09T11:57:38.883Z,934.21
2019-01-09T11:58:38.798Z,934.21
2019-01-09T11:59:38.673Z,934.29
2019-01-09T12:00:38.571Z,934.29
2019-01-09T12:01:38.571Z,934.32
2019-01-09T12:02:38.368Z,934.36
2019-01-09T12:03:38.277Z,934.24
2019-01-09T12:04:38.160Z,934.32
2019-01-09T12:05:38.054Z,934.38
2019-01-09T12:06:37.954Z,934.37
2019-01-09T12:07:37.848Z,934.28
2019-01-09T12:08:37.869Z,934.37
2019-01-09T12:09:37.642Z,934.42
2019-01-09T12:10:37.542Z,934.37
2019-01-09T12:11:37.443Z,934.45
2019-01-09T12:12:37.337Z,934.41
2019-01-09T12:13:37.251Z,934.38
2019-01-09T12:14:37.126Z,934.34
2019-01-09T12:15:37.125Z,934.40
2019-01-09T12:16:36.926Z,934.39
2019-01-09T12:17:36.820Z,934.36
2019-01-09T12:18:36.731Z,934.46
2019-01-09T12:19:36.610Z,934.43
2019-01-09T12:20:36.508Z,934.46
2019-01-09T12:21:36.404Z,934.46
2019-01-09T12:22:36.408Z,934.43
2019-01-09T12:23:36.214Z,934.42
2019-01-09T12:24:36.098Z,934.42
2019-01-09T12:25:35.992Z,934.51
2019-01-09T12:26:35.888Z,934.53
2019-01-09T12:27:35.798Z,934.56